Rachel, Nevada Weather observations

Data are for observation ending at time listed.
 Day   Time    Ave.   Ave.  Ave.  Vector   Max.   Stn.    Total    Solar   Ave.  
  of    of     Air    Rel.  Wind   Wind    Wind   Baro.  Precip.   Rad.    Soil  
Year   Day     Temp.  Hum.  Speed  Dir.    Gust   Pres.                    Temp. 
2016   (PST)    F      %     mph   deg.    mph     mb.     in.     W/m2     F   
------------------------------------------------------------------------------
 207    8:40   85.0     9    3.5    40      6.6   851.6    0.00     479    84.8
 207    8:50   85.9     9    4.0    27      6.7   849.4    0.00     500    85.3
 207    9:00   86.9     9    4.2    18      7.2   849.5    0.00     521    85.8
 207    9:10   87.5     9    4.1     4      7.0   850.2    0.00     540    86.5
 207    9:20   88.3     9    3.8     1      5.6   850.9    0.00     556    87.2
 207    9:30   89.5     9    3.8   349      6.7   852.0    0.00     573    87.7
 207    9:40   90.8     9    4.0   354      7.2   852.6    0.00     586    88.6
 207    9:50   91.6     9    3.9   346      7.7   853.2    0.00     600    89.2
 207   10:00   92.6    10    4.5   322      9.8   851.6    0.00     610    89.9
 207   10:10   94.0    10    3.9   254      7.5   851.1    0.00     617    90.6
 207   10:20   94.7    10    4.8   204     10.3   851.7    0.00     627    91.1
 207   10:30   94.8    10    5.2   243     13.0   854.7    0.00     640    91.5
 207   10:40   95.9     9   15.1   240     26.5   855.6    0.00     661    91.6
 207   10:50   95.9     8   13.7   238     21.8   855.3    0.00     669    91.6
 207   11:00   96.4     8   14.1   248     19.4   855.0    0.00     676    91.7
 207   11:10   96.4     8   11.1   238     18.6   854.6    0.00     681    91.8
 207   11:20   96.7     8   11.2   244     26.5   854.6    0.00     685    92.0
 207   11:30   97.0     8   12.8   244     20.7   854.6    0.00     696    92.2
 207   11:40   97.5     8   13.3   251     22.2   854.6    0.00     695    92.1
 207   11:50   97.0     8   14.5   246     21.6   854.4    0.00     696    92.1
 207   12:00   97.0     8   10.1   232     21.1   854.4    0.00     694    92.0
 207   12:10   97.2     8   12.8   228     23.2   854.3    0.00     697    91.9
 207   12:20   97.2     8   13.2   231     26.6   854.4    0.00     697    92.0
 207   12:30   97.4     8   15.3   230     22.6   852.9    0.00     692    91.9
 207   12:40   97.9     7   14.8   247     22.2   853.6    0.00     690    91.7
 207   12:50   97.8     7   15.0   227     25.1   853.7    0.00     688    91.7
 207   13:00   97.0     7   14.7   226     23.2   853.1    0.00     684    91.6
 207   13:10   97.7     7   14.2   223     21.6   853.0    0.00     678    91.7
 207   13:20   97.5     7   12.9   234     24.5   853.0    0.00     669    91.7
 207   13:30   98.0     7   12.7   244     25.1   852.7    0.00     660    91.9
 207   13:40   98.2     7   12.9   237     20.2   853.8    0.00     650    91.9
 207   13:50   98.5     7   12.2   230     22.4   852.9    0.00     637    92.0
 207   14:00   98.4     7   14.8   222     26.1   852.6    0.00     622    92.1
 207   14:10   98.4     7   15.4   216     23.4   852.7    0.00     608    92.1
 207   14:20   98.4     7   16.2   203     27.5   849.5    0.00     589    92.4
 207   14:30   98.7     7   14.0   216     25.6   849.1    0.00     575    92.4
 207   14:40   98.4     6   14.8   218     31.9   849.1    0.00     559    92.4
 207   14:50   98.7     7   14.4   209     22.1   849.2    0.00     537    92.5
 207   15:00   98.5     7   15.7   198     24.7   849.5    0.00     522    92.4
 207   15:10   98.0     7   14.5   204     22.6   849.5    0.00     502    92.5
 207   15:20   98.5     7   13.1   214     20.7   849.5    0.00     480    92.5
 207   15:30   98.5     6   13.6   208     20.8   849.1    0.00     461    92.4
 207   15:40   98.9     7   12.4   231     20.8   849.1    0.00     437    92.4
 207   15:50   98.5     7   12.8   212     24.3   848.8    0.00     414    92.3
 207   16:00   98.3     7   14.9   226     21.9   848.8    0.00     393    92.1
 207   16:10   98.2     7   13.9   232     23.3   848.9    0.00     373    92.0
 207   16:20   97.7     7   15.2   218     21.3   849.0    0.00     348    91.9
 207   16:30   97.7     7   12.8   222     20.2   848.5    0.00     325    91.6
 207   16:40   97.7     7   14.8   207     21.7   849.0    0.00     301    91.7
 207   16:50   97.2     7   16.4   209     24.9   848.7    0.00     279    91.5
 207   17:00   97.1     7   15.5   212     24.9   848.3    0.00     254    91.4
 207   17:10   96.6     7   16.0   202     23.9   848.1    0.00     230    91.4
 207   17:20   96.7     7   13.5   217     19.9   848.0    0.00     203    91.4
 207   17:30   96.3     7   15.5   218     23.4   848.7    0.00     180    91.3
 207   17:40   96.2     7   14.4   210     21.4   848.5    0.00     155    91.2
 207   17:50   96.0     7   11.9   235     22.0   848.5    0.00     131    91.0
 207   18:00   95.6     7   11.1   224     18.9   848.9    0.00     109    90.8
 207   18:10   95.1     7   13.1   214     19.4   849.4    0.00      89    90.7
 207   18:20   94.7     7   10.9   221     16.8   850.4    0.00      66    90.6
 207   18:30   94.0     8   10.9   223     17.3   850.5    0.00      42    90.4
 207   18:40   93.4     8   10.3   225     15.6   851.5    0.00      30    90.1
 207   18:50   92.5     8    9.7   220     15.9   851.3    0.00      16    89.9
 207   19:00   91.6     8   10.1   213     15.8   850.7    0.00       8    89.6
 207   19:10   90.5     8    9.6   213     14.7   849.0    0.00       3    89.3
 207   19:20   89.8     9    9.9   212     15.1   848.7    0.00       3    89.1
 207   19:30   89.2     9   10.6   212     14.8   848.9    0.00       0    88.8
 207   19:40   88.7     9   10.5   213     14.5   850.6    0.00       0    88.5
 207   19:50   88.1    10    9.5   213     14.1   850.7    0.00       0    88.2
 207   20:00   87.8    10   10.1   216     14.8   852.1    0.00       0    88.0
 207   20:10   87.6    10   10.2   216     14.5   852.1    0.00       0    87.8
 207   20:20   87.0    10   10.0   219     14.2   852.0    0.00       0    87.6
 207   20:30   87.0    10   10.4   218     13.9   852.1    0.00       0    87.4
 207   20:40   86.6    10    8.7   221     12.6   851.1    0.00       0    87.2
 207   20:50   86.8    10    8.5   212     13.1   851.5    0.00       0    87.0
 207   21:00   85.9    10    6.6   202     11.7   851.6    0.00       0    86.8
 207   21:10   84.8    11    6.5   195     10.1   851.5    0.00       0    86.5
 207   21:20   84.5    11    6.3   182      8.8   849.7    0.00       0    86.2
 207   21:30   81.9    12    5.5   150      6.6   848.7    0.00       0    85.7
 207   21:40   81.4    12    6.1   184      9.1   850.5    0.00       0    85.2
 207   21:50   84.5    12    7.9   200     10.2   847.6    0.00       0    85.2
 207   22:00   83.8    12    6.8   214     13.9   848.2    0.00       0    85.2
 207   22:10   85.9    11    8.0   216     13.2   848.3    0.00       0    85.1
 207   22:20   82.3    12    3.9   341     11.4   848.4    0.00       0    85.1
 207   22:30   75.3    13    8.1    57     12.8   848.4    0.00       0    84.4
 207   22:40   76.8    13    4.5    67      8.3   848.3    0.00       0    83.8
 207   22:50   73.6    14   10.5    61     14.7   847.7    0.00       0    83.4
 207   23:00   74.7    14    9.2    59     15.9   848.1    0.00       0    82.9
 207   23:10   75.0    13    7.6    60     11.5   847.9    0.00       0    82.7
 207   23:20   73.5    14    8.1    49     12.0   848.7    0.00       0    82.5
 207   23:30   73.1    14    6.5    63     10.7   850.7    0.00       0    82.1
 207   23:40   72.2    14    7.5    52     11.4   851.1    0.00       0    82.0
 207   23:50   71.5    14    8.0    31     10.3   852.0    0.00       0    81.6
 208    0:00   68.7    16    4.6   338      6.6   852.2    0.00       0    81.3
 208    0:10   67.7    16    4.6    44      7.4   852.0    0.00       0    80.9
 208    0:20   66.3    17    4.8    69      6.1   851.3    0.00       0    80.4
 208    0:30   66.1    17    7.4    73      9.6   850.8    0.00       0    79.9
 208    0:40   66.4    17    6.2    73      8.5   851.2    0.00       0    79.6
 208    0:50   67.5    16    4.9   108      6.8   850.4    0.00       0    79.3
 208    1:00   68.6    16    1.8    21      3.4   850.7    0.00       0    79.3
 208    1:10   68.3    16    2.4     4      4.5   848.7    0.00       0    79.4
 208    1:20   68.0    17    0.5   206      6.8   847.7    0.00       0    79.2
 208    1:30   67.2    17    0.4   222      1.5   847.4    0.00       0    79.1
 208    1:40   67.2    18    2.4   229      5.6   847.1    0.00       0    79.0
 208    1:50   68.0    18    4.7   232      6.2   847.4    0.00       0    78.8
 208    2:00   67.2    18    4.3   234      5.3   848.6    0.00       0    78.7
 208    2:10   65.4    18    2.4   209      3.9   848.3    0.00       0    78.5
 208    2:20   65.6    19    1.2   204      2.5   849.0    0.00       0    78.3
 208    2:30   65.4    19    1.1   171      3.1   848.3    0.00       0    78.1
 208    2:40   64.5    20    3.0   199      5.1   850.2    0.00       0    77.8
 208    2:50   63.2    20    1.6   210      3.1   850.0    0.00       0    77.6
 208    3:00   61.6    21    4.4    24      8.2   850.1    0.00       0    77.3
 208    3:10   59.0    23    4.6    51      6.7   848.1    0.00       0    76.8
 208    3:20   59.4    22    4.2    88      5.4   848.8    0.00       0    76.2
 208    3:30   60.0    22    5.2   106      6.0   847.1    0.00       0    75.8
 208    3:40   60.7    22    4.9   135      5.5   847.0    0.00       0    75.7
 208    3:50   61.0    21    2.9   150      5.2   846.0    0.00       0    75.6
 208    4:00   61.3    21    0.2    79      1.1   846.0    0.00       0    75.7
 208    4:10   60.3    22    1.8   122      2.3   846.2    0.00       0    75.6
 208    4:20   61.4    22    1.7    56      2.3   846.4    0.00       0    75.3
 208    4:30   60.9    22    1.4    70      2.1   846.1    0.00       0    75.3
 208    4:40   60.8    22    2.2    51      3.2   846.1    0.00       1    75.2
 208    4:50   61.8    21    1.9    40      3.4   846.3    0.00       3    74.9
 208    5:00   59.4    22    1.5    35      2.2   846.8    0.00       5    74.9
 208    5:10   57.7    23    3.1   342      3.8   847.0    0.00      14    74.7
 208    5:20   57.9    25    2.2   281      3.7   848.5    0.00      30    74.6
 208    5:30   58.3    22    1.9   143      2.9   849.2    0.00      52    74.4
 208    5:40   59.7    23    1.3    93      2.0   849.3    0.00      77    74.3
 208    5:50   61.8    21    1.5   140      3.1   849.5    0.00     101    74.8
 208    6:00   64.1    20    1.0   135      2.1   849.8    0.00     124    75.5
 208    6:10   68.2    17    0.6   126      1.9   850.1    0.00     148    76.2
 208    6:20   69.5    17    1.0   214      2.0   850.3    0.00     174    76.9
 208    6:30   71.5    17    0.9   214      1.8   849.8    0.00     200    77.7
 208    6:40   75.0    16    0.4   103      2.0   849.0    0.00     222    78.6
 208    6:50   75.9    15    2.7    14      5.0   851.5    0.00     245    79.4
 208    7:00   73.1    16    4.2     7      5.5   851.4    0.00     273    79.6
 208    7:10   72.8    17    3.6    19      4.7   853.9    0.00     300    79.8
 208    7:20   73.5    17    3.4    14      4.7   853.2    0.00     324    80.2
 208    7:30   74.9    16    2.3    26      4.3   852.2    0.00     346    80.1
 208    7:40   77.2    15    2.4    31      3.8   854.0    0.00     367    80.0
 208    7:50   77.8    15    2.7    14      4.1   855.5    0.00     388    80.0
 208    8:00   80.3    14    1.3    15      3.1   855.8    0.00     409    80.9
 208    8:10   80.9    14    2.1     6      3.7   855.5    0.00     427    82.0
 208    8:20   83.0    13    1.0   116      2.3   852.9    0.00     448    83.2
 208    8:30   85.0    12    1.0    45      3.3   851.6    0.00     470    84.3

Return to St. George, Utah graphs page.


Western Regional Climate Center,wrcc@dri.edu